createdAt,value
2019-02-03T00:00:12.754Z,5.50
2019-02-03T00:02:53.731Z,5.50
2019-02-03T00:05:34.743Z,5.50
2019-02-03T00:08:15.342Z,5.40
2019-02-03T00:13:38.366Z,5.40
2019-02-03T00:16:19.606Z,5.40
2019-02-03T00:19:01.333Z,5.40
2019-02-03T00:21:42.588Z,5.40
2019-02-03T00:24:24.027Z,5.40
2019-02-03T00:26:53.586Z,5.40
2019-02-03T00:29:22.880Z,5.40
2019-02-03T00:31:52.089Z,5.40
2019-02-03T00:34:21.751Z,5.40
2019-02-03T00:36:50.916Z,5.40
2019-02-03T00:39:20.539Z,5.40
2019-02-03T00:41:49.970Z,5.40
2019-02-03T00:44:19.636Z,5.40
2019-02-03T00:46:49.128Z,5.30
2019-02-03T00:49:18.571Z,5.30
2019-02-03T00:51:47.719Z,5.30
2019-02-03T00:54:16.880Z,5.30
2019-02-03T00:56:46.755Z,5.30
2019-02-03T00:59:15.884Z,5.30
2019-02-03T01:01:45.038Z,5.20
2019-02-03T01:04:14.341Z,5.20
2019-02-03T01:06:43.776Z,5.20
2019-02-03T01:09:12.982Z,5.10
2019-02-03T01:11:42.125Z,5.10
2019-02-03T01:14:11.514Z,5.10
2019-02-03T01:16:40.705Z,5.10
2019-02-03T01:19:09.836Z,5.10
2019-02-03T01:21:39.052Z,5.10
2019-02-03T01:24:08.894Z,5.10
2019-02-03T01:26:38.058Z,5.10
2019-02-03T01:29:07.201Z,5.10
2019-02-03T01:31:36.417Z,5.10
2019-02-03T01:34:05.947Z,5.00
2019-02-03T01:36:35.440Z,5.00
2019-02-03T01:39:08.018Z,5.00
2019-02-03T01:41:37.219Z,5.00
2019-02-03T01:44:06.691Z,4.90
2019-02-03T01:46:35.819Z,4.80
2019-02-03T01:49:05.255Z,4.70
2019-02-03T01:51:35.165Z,4.90
2019-02-03T01:54:04.650Z,4.80
2019-02-03T01:56:34.149Z,4.80
2019-02-03T01:59:03.880Z,4.80
2019-02-03T02:01:33.368Z,4.60
2019-02-03T02:04:02.868Z,4.70
2019-02-03T02:06:31.979Z,4.60
2019-02-03T02:09:01.136Z,4.70
2019-02-03T02:11:30.262Z,4.70
2019-02-03T02:14:00.095Z,4.70
2019-02-03T02:16:29.261Z,4.70
2019-02-03T02:18:58.714Z,4.70
2019-02-03T02:21:28.089Z,4.70
2019-02-03T02:23:57.427Z,4.70
2019-02-03T02:26:26.578Z,4.60
2019-02-03T02:28:55.717Z,4.60
2019-02-03T02:31:24.806Z,4.50
2019-02-03T02:33:53.958Z,4.50
2019-02-03T02:36:23.463Z,4.40
2019-02-03T02:38:52.610Z,4.40
2019-02-03T02:41:21.756Z,4.30
2019-02-03T02:43:51.205Z,4.40
2019-02-03T02:46:20.389Z,4.40
2019-02-03T02:48:49.555Z,4.30
2019-02-03T02:51:18.734Z,4.30
2019-02-03T02:53:47.819Z,4.30
2019-02-03T02:56:16.962Z,4.30
2019-02-03T02:58:46.102Z,4.20
2019-02-03T03:01:15.561Z,4.20
2019-02-03T03:03:44.673Z,4.20
2019-02-03T03:06:32.942Z,4.20
2019-02-03T03:09:02.014Z,4.10
2019-02-03T03:11:31.216Z,4.10
2019-02-03T03:14:00.416Z,4.10
2019-02-03T03:16:29.513Z,4.20
2019-02-03T03:18:58.607Z,4.20
2019-02-03T03:21:27.733Z,4.20
2019-02-03T03:23:56.801Z,4.20
2019-02-03T03:26:26.166Z,4.20
2019-02-03T03:28:55.432Z,4.20
2019-02-03T03:31:25.180Z,4.20
2019-02-03T03:33:54.326Z,4.20
2019-02-03T03:36:23.462Z,4.10
2019-02-03T03:38:52.909Z,4.20
2019-02-03T03:41:22.248Z,4.20
2019-02-03T03:43:51.470Z,4.10
2019-02-03T03:46:20.663Z,4.10
2019-02-03T03:48:49.873Z,4.10
2019-02-03T03:51:19.038Z,4.10
2019-02-03T03:53:48.414Z,4.10
2019-02-03T03:56:17.579Z,4.10
2019-02-03T03:58:46.695Z,4.00
2019-02-03T04:01:15.899Z,4.00
2019-02-03T04:03:45.481Z,4.00
2019-02-03T04:06:14.917Z,3.90
2019-02-03T04:08:45.514Z,4.00
2019-02-03T04:11:14.924Z,4.00
2019-02-03T04:13:44.111Z,4.00
2019-02-03T04:16:13.225Z,4.00
2019-02-03T04:18:42.315Z,4.00
2019-02-03T04:21:11.474Z,4.00
2019-02-03T04:23:40.559Z,4.10
2019-02-03T04:26:09.711Z,4.10
2019-02-03T04:28:39.537Z,4.00
2019-02-03T04:31:08.647Z,4.00
2019-02-03T04:33:37.912Z,4.10
2019-02-03T04:36:07.146Z,4.10
2019-02-03T04:38:36.221Z,4.00
2019-02-03T04:41:05.318Z,4.00
2019-02-03T04:43:34.481Z,4.10
2019-02-03T04:46:03.635Z,4.00
2019-02-03T04:48:33.025Z,4.00
2019-02-03T04:51:02.228Z,3.90
2019-02-03T04:53:31.750Z,3.90
2019-02-03T04:56:00.976Z,3.90
2019-02-03T04:58:30.079Z,3.90
2019-02-03T05:01:02.551Z,3.90
2019-02-03T05:03:31.695Z,3.90
2019-02-03T05:06:01.176Z,4.00
2019-02-03T05:08:30.409Z,4.00
2019-02-03T05:10:59.519Z,3.90
2019-02-03T05:13:28.785Z,3.90
2019-02-03T05:15:57.969Z,3.90
2019-02-03T05:18:27.246Z,3.80
2019-02-03T05:20:57.032Z,3.90
2019-02-03T05:23:27.262Z,3.90
2019-02-03T05:25:56.743Z,3.90
2019-02-03T05:28:26.634Z,3.80
2019-02-03T05:30:55.935Z,3.90
2019-02-03T05:33:25.094Z,3.80
2019-02-03T05:35:55.154Z,3.80
2019-02-03T05:38:24.582Z,3.80
2019-02-03T05:40:56.930Z,3.80
2019-02-03T05:43:26.270Z,3.90
2019-02-03T05:45:55.799Z,3.90
2019-02-03T05:48:25.045Z,3.90
2019-02-03T05:50:54.128Z,3.90
2019-02-03T05:53:23.305Z,3.90
2019-02-03T05:55:52.905Z,3.80
2019-02-03T05:58:22.044Z,3.80
2019-02-03T06:00:51.190Z,3.80
2019-02-03T06:03:20.355Z,3.80
2019-02-03T06:05:50.091Z,3.80
2019-02-03T06:08:19.418Z,3.90
2019-02-03T06:10:48.587Z,3.90
2019-02-03T06:13:17.750Z,3.90
2019-02-03T06:15:47.087Z,4.00
2019-02-03T06:18:16.175Z,4.10
2019-02-03T06:20:45.252Z,3.90
2019-02-03T06:23:15.312Z,4.00
2019-02-03T06:25:44.717Z,4.00
2019-02-03T06:28:25.574Z,3.90
2019-02-03T06:31:10.232Z,3.90
2019-02-03T06:33:58.505Z,3.90
2019-02-03T06:36:46.755Z,3.80
2019-02-03T06:39:47.912Z,3.90
2019-02-03T06:42:07.743Z,3.80
2019-02-03T06:47:51.426Z,3.70
2019-02-03T06:50:39.606Z,3.80
2019-02-03T06:53:27.807Z,3.80
2019-02-03T06:56:15.990Z,3.70
2019-02-03T06:59:04.762Z,3.80
2019-02-03T07:01:53.024Z,3.90
2019-02-03T07:04:42.140Z,3.80
2019-02-03T07:07:30.317Z,3.80
2019-02-03T07:10:18.768Z,3.80
2019-02-03T07:13:06.938Z,3.70
2019-02-03T07:15:55.146Z,3.60
2019-02-03T07:18:24.252Z,3.60
2019-02-03T07:20:53.321Z,3.60
2019-02-03T07:23:41.790Z,3.60
2019-02-03T07:26:29.987Z,3.70
2019-02-03T07:29:18.252Z,3.70
2019-02-03T07:32:06.867Z,3.70
2019-02-03T07:34:35.991Z,3.70
2019-02-03T07:37:24.238Z,3.70
2019-02-03T07:40:12.982Z,3.70
2019-02-03T07:43:02.715Z,3.80
2019-02-03T07:45:51.207Z,3.80
2019-02-03T07:48:39.766Z,3.80
2019-02-03T07:51:29.686Z,3.80
2019-02-03T07:54:18.177Z,3.90
2019-02-03T07:57:06.355Z,3.90
2019-02-03T07:59:54.547Z,3.80
2019-02-03T08:02:42.765Z,3.90
2019-02-03T08:05:31.007Z,3.90
2019-02-03T08:08:19.449Z,4.00
2019-02-03T08:11:07.656Z,3.90
2019-02-03T08:13:55.894Z,3.90
2019-02-03T08:16:44.174Z,4.00
2019-02-03T08:19:32.387Z,4.00
2019-02-03T08:22:22.546Z,4.00
2019-02-03T08:25:11.933Z,4.00
2019-02-03T08:27:53.256Z,4.10
2019-02-03T08:30:34.571Z,4.00
2019-02-03T08:33:15.096Z,4.10
2019-02-03T08:35:55.754Z,4.10
2019-02-03T08:38:36.963Z,4.10
2019-02-03T08:41:17.707Z,4.20
2019-02-03T08:43:59.467Z,4.20
2019-02-03T08:46:40.839Z,4.30
2019-02-03T08:49:21.737Z,4.20
2019-02-03T08:52:02.803Z,4.30
2019-02-03T08:54:50.827Z,4.30
2019-02-03T08:57:26.261Z,4.30
2019-02-03T09:00:06.726Z,4.30
2019-02-03T09:02:47.447Z,4.30
2019-02-03T09:05:28.291Z,4.30
2019-02-03T09:08:09.030Z,4.30
2019-02-03T09:10:49.666Z,4.30
2019-02-03T09:13:30.430Z,4.40
2019-02-03T09:16:12.150Z,4.40
2019-02-03T09:18:52.741Z,4.40
2019-02-03T09:21:34.085Z,4.50
2019-02-03T09:24:15.484Z,4.40
2019-02-03T09:26:56.686Z,4.40
2019-02-03T09:29:37.755Z,4.40
2019-02-03T09:32:06.854Z,4.40
2019-02-03T09:34:36.175Z,4.40
2019-02-03T09:37:24.386Z,4.40
2019-02-03T09:40:14.351Z,4.50
2019-02-03T09:43:02.513Z,4.50
2019-02-03T09:45:52.708Z,4.50
2019-02-03T09:49:01.374Z,4.60
2019-02-03T09:51:49.574Z,4.60
2019-02-03T09:54:37.747Z,4.60
2019-02-03T09:57:26.046Z,4.80
2019-02-03T10:00:15.771Z,4.80
2019-02-03T10:03:05.037Z,4.80
2019-02-03T10:05:53.269Z,4.80
2019-02-03T10:08:41.822Z,4.90
2019-02-03T10:11:30.334Z,5.00
2019-02-03T10:14:18.502Z,5.00
2019-02-03T10:17:06.698Z,5.00
2019-02-03T10:19:54.887Z,5.00
2019-02-03T10:22:43.090Z,5.00
2019-02-03T10:25:31.432Z,5.10
2019-02-03T10:28:19.634Z,5.00
2019-02-03T10:31:08.097Z,5.00
2019-02-03T10:33:56.840Z,5.10
2019-02-03T10:36:45.062Z,5.10
2019-02-03T10:39:34.958Z,5.10
2019-02-03T10:42:23.638Z,5.10
2019-02-03T10:45:14.366Z,5.00
2019-02-03T10:48:02.921Z,4.90
2019-02-03T10:50:51.138Z,5.00
2019-02-03T10:53:39.713Z,5.10
2019-02-03T10:56:28.295Z,5.10
2019-02-03T10:59:16.464Z,5.20
2019-02-03T11:02:04.992Z,5.20
2019-02-03T11:04:53.521Z,5.00
2019-02-03T11:07:41.834Z,5.10
2019-02-03T11:10:31.763Z,5.20
2019-02-03T11:13:20.049Z,5.20
2019-02-03T11:15:49.258Z,5.10
2019-02-03T11:18:39.192Z,5.10
2019-02-03T11:21:27.363Z,5.10
2019-02-03T11:24:15.968Z,5.00
2019-02-03T11:26:56.615Z,5.00
2019-02-03T11:29:37.875Z,5.00
2019-02-03T11:32:18.763Z,5.00
2019-02-03T11:34:59.547Z,4.90
2019-02-03T11:37:40.716Z,4.90
2019-02-03T11:40:21.795Z,5.00
2019-02-03T11:43:02.569Z,5.10
2019-02-03T11:45:43.425Z,5.10
2019-02-03T11:48:24.328Z,5.10
2019-02-03T11:51:05.283Z,5.00
2019-02-03T11:53:45.978Z,5.00
2019-02-03T11:56:27.450Z,4.90
2019-02-03T11:59:08.431Z,4.90
2019-02-03T12:01:49.638Z,5.00
2019-02-03T12:04:30.711Z,5.00
2019-02-03T12:07:11.996Z,4.90
2019-02-03T12:09:41.138Z,5.00
2019-02-03T12:12:31.137Z,5.10
2019-02-03T12:15:20.079Z,5.20
2019-02-03T12:18:10.118Z,5.20
2019-02-03T12:20:58.300Z,5.20
2019-02-03T12:23:27.961Z,5.20
2019-02-03T12:26:16.263Z,5.20
2019-02-03T12:29:04.570Z,5.30
2019-02-03T12:31:53.226Z,5.20
2019-02-03T12:34:41.560Z,5.30
2019-02-03T12:37:31.815Z,5.20
2019-02-03T12:40:21.615Z,5.20
2019-02-03T12:43:11.982Z,5.10
2019-02-03T12:45:41.265Z,5.00
2019-02-03T12:48:10.499Z,5.10
2019-02-03T12:50:39.863Z,5.10
2019-02-03T12:53:09.686Z,5.10
2019-02-03T12:55:39.020Z,5.10
2019-02-03T12:58:20.466Z,5.20
2019-02-03T13:00:50.079Z,5.20
2019-02-03T13:03:19.290Z,5.20
2019-02-03T13:05:49.490Z,5.20
2019-02-03T13:08:18.626Z,5.10
2019-02-03T13:10:47.722Z,5.10
2019-02-03T13:13:16.869Z,5.10
2019-02-03T13:15:52.395Z,5.10
2019-02-03T13:18:22.159Z,5.10
2019-02-03T13:20:51.574Z,5.10
2019-02-03T13:23:21.175Z,5.10
2019-02-03T13:25:50.583Z,5.00
2019-02-03T13:28:19.701Z,5.00
2019-02-03T13:30:50.617Z,5.00
2019-02-03T13:33:21.830Z,5.00
2019-02-03T13:35:50.803Z,5.10
2019-02-03T13:38:20.547Z,5.10
2019-02-03T13:40:49.615Z,5.10
2019-02-03T13:43:18.786Z,5.10
2019-02-03T13:45:47.955Z,5.10
2019-02-03T13:48:18.103Z,5.10
2019-02-03T13:50:47.414Z,5.10
2019-02-03T13:53:16.558Z,5.20
2019-02-03T13:55:45.774Z,5.20
2019-02-03T13:58:15.171Z,5.20
2019-02-03T14:00:45.476Z,5.30
2019-02-03T14:03:14.666Z,5.30
2019-02-03T14:05:44.288Z,5.20
2019-02-03T14:08:13.743Z,5.20
2019-02-03T14:10:43.511Z,5.20
2019-02-03T14:13:12.258Z,5.20
2019-02-03T14:15:41.642Z,5.30
2019-02-03T14:18:11.707Z,5.30
2019-02-03T14:20:41.109Z,5.30
2019-02-03T14:23:10.288Z,5.40
2019-02-03T14:25:39.674Z,5.30
2019-02-03T14:28:08.750Z,5.30
2019-02-03T14:30:41.446Z,5.30
2019-02-03T14:33:11.057Z,5.30
2019-02-03T14:35:40.473Z,5.30
2019-02-03T14:38:09.817Z,5.30
2019-02-03T14:40:39.285Z,5.30
2019-02-03T14:43:08.802Z,5.30
2019-02-03T14:45:38.224Z,5.30
2019-02-03T14:48:07.832Z,5.30
2019-02-03T14:50:37.410Z,5.20
2019-02-03T14:53:09.562Z,5.20
2019-02-03T14:55:40.306Z,5.30
2019-02-03T14:58:09.717Z,5.20
2019-02-03T15:00:41.355Z,5.30
2019-02-03T15:03:16.065Z,5.30
2019-02-03T15:05:45.977Z,5.30
2019-02-03T15:08:15.898Z,5.30
2019-02-03T15:10:51.728Z,5.30
2019-02-03T15:13:21.022Z,5.20
2019-02-03T15:15:50.517Z,5.30
2019-02-03T15:18:20.652Z,5.30
2019-02-03T15:20:50.827Z,5.30
2019-02-03T15:23:19.991Z,5.30
2019-02-03T15:25:49.976Z,5.40
2019-02-03T15:28:19.751Z,5.30
2019-02-03T15:30:49.355Z,5.20
2019-02-03T15:33:18.573Z,5.20
2019-02-03T15:35:47.782Z,5.10
2019-02-03T15:38:17.210Z,5.10
2019-02-03T15:40:46.913Z,5.10
2019-02-03T15:43:25.663Z,5.10
2019-02-03T15:45:50.710Z,5.10
2019-02-03T15:48:19.933Z,5.10
2019-02-03T15:50:49.319Z,5.10
2019-02-03T15:53:19.447Z,5.10
2019-02-03T15:55:49.204Z,5.10
2019-02-03T15:58:18.732Z,5.10
2019-02-03T16:00:50.900Z,5.10
2019-02-03T16:03:20.550Z,5.00
2019-02-03T16:05:50.369Z,5.10
2019-02-03T16:08:21.361Z,5.10
2019-02-03T16:10:50.915Z,5.00
2019-02-03T16:13:20.369Z,5.10
2019-02-03T16:15:50.076Z,5.20
2019-02-03T16:18:20.946Z,5.20
2019-02-03T16:20:50.418Z,5.10
2019-02-03T16:23:20.263Z,5.00
2019-02-03T16:25:49.912Z,4.90
2019-02-03T16:28:19.774Z,4.90
2019-02-03T16:30:48.952Z,4.90
2019-02-03T16:33:18.969Z,5.00
2019-02-03T16:35:48.502Z,4.90
2019-02-03T16:38:22.881Z,5.00
2019-02-03T16:40:49.823Z,4.90
2019-02-03T16:43:19.321Z,5.00
2019-02-03T16:45:49.158Z,4.90
2019-02-03T16:48:18.643Z,5.00
2019-02-03T16:51:07.279Z,5.00
2019-02-03T16:53:36.870Z,5.00
2019-02-03T16:56:06.436Z,5.00
2019-02-03T16:58:36.162Z,5.00
2019-02-03T17:01:06.283Z,5.00
2019-02-03T17:03:35.785Z,5.00
2019-02-03T17:06:05.311Z,5.00
2019-02-03T17:08:34.902Z,5.10
2019-02-03T17:11:05.988Z,5.00
2019-02-03T17:13:35.649Z,5.00
2019-02-03T17:16:05.625Z,5.00
2019-02-03T17:18:35.741Z,5.00
2019-02-03T17:21:04.871Z,5.00
2019-02-03T17:23:34.378Z,5.00
2019-02-03T17:26:07.429Z,5.00
2019-02-03T17:28:36.928Z,5.10
2019-02-03T17:31:06.835Z,5.20
2019-02-03T17:33:37.096Z,5.10
2019-02-03T17:36:07.542Z,5.10
2019-02-03T17:38:37.184Z,5.00
2019-02-03T17:41:06.709Z,5.00
2019-02-03T17:43:36.568Z,5.00
2019-02-03T17:46:05.764Z,5.00
2019-02-03T17:48:35.267Z,5.10
2019-02-03T17:51:05.266Z,5.10
2019-02-03T17:53:34.680Z,5.00
2019-02-03T17:56:04.747Z,4.90
2019-02-03T17:58:34.292Z,4.90
2019-02-03T18:01:06.903Z,5.00
2019-02-03T18:03:36.036Z,5.00
2019-02-03T18:06:05.553Z,4.90
2019-02-03T18:08:34.725Z,4.90
2019-02-03T18:11:03.925Z,4.90
2019-02-03T18:13:33.152Z,4.80
2019-02-03T18:16:02.387Z,4.90
2019-02-03T18:18:31.548Z,4.80
2019-02-03T18:21:01.117Z,4.80
2019-02-03T18:23:30.492Z,4.90
2019-02-03T18:25:59.627Z,4.90
2019-02-03T18:28:28.747Z,4.90
2019-02-03T18:30:58.367Z,4.90
2019-02-03T18:33:28.118Z,4.90
2019-02-03T18:36:03.550Z,4.90
2019-02-03T18:38:33.078Z,4.90
2019-02-03T18:41:02.160Z,4.90
2019-02-03T18:43:31.754Z,4.80
2019-02-03T18:46:01.241Z,4.90
2019-02-03T18:48:49.867Z,4.90
2019-02-03T18:51:30.542Z,4.90
2019-02-03T18:54:12.226Z,4.80
2019-02-03T18:56:52.954Z,4.90
2019-02-03T18:59:33.862Z,4.80
2019-02-03T19:02:15.688Z,4.80
2019-02-03T19:04:56.650Z,4.80
2019-02-03T19:07:37.552Z,4.70
2019-02-03T19:10:18.251Z,4.80
2019-02-03T19:12:59.485Z,4.80
2019-02-03T19:15:39.982Z,4.80
2019-02-03T19:18:21.108Z,4.80
2019-02-03T19:21:02.946Z,4.70
2019-02-03T19:23:44.283Z,4.70
2019-02-03T19:26:24.810Z,4.70
2019-02-03T19:29:05.882Z,4.70
2019-02-03T19:31:46.678Z,4.80
2019-02-03T19:34:27.628Z,4.80
2019-02-03T19:37:08.396Z,4.90
2019-02-03T19:39:49.171Z,4.80
2019-02-03T19:42:30.255Z,4.80
2019-02-03T19:45:11.562Z,5.00
2019-02-03T19:47:53.338Z,4.90
2019-02-03T19:50:34.265Z,5.00
2019-02-03T19:53:15.474Z,4.90
2019-02-03T19:55:56.815Z,4.90
2019-02-03T19:58:37.632Z,5.00
2019-02-03T20:01:18.460Z,5.10
2019-02-03T20:03:59.244Z,5.20
2019-02-03T20:06:40.335Z,5.10
2019-02-03T20:09:20.817Z,5.20
2019-02-03T20:12:01.936Z,5.30
2019-02-03T20:14:43.147Z,5.40
2019-02-03T20:17:24.029Z,5.40
2019-02-03T20:20:05.145Z,5.40
2019-02-03T20:22:46.564Z,5.50
2019-02-03T20:25:28.290Z,5.50
2019-02-03T20:28:09.141Z,5.50
2019-02-03T20:30:49.703Z,5.50
2019-02-03T20:33:30.591Z,5.40
2019-02-03T20:36:11.435Z,5.50
2019-02-03T20:38:52.778Z,5.40
2019-02-03T20:41:33.518Z,5.20
2019-02-03T20:44:14.696Z,5.20
2019-02-03T20:46:56.100Z,5.20
2019-02-03T20:49:37.482Z,5.20
2019-02-03T20:52:18.231Z,5.10
2019-02-03T20:54:59.062Z,5.10
2019-02-03T20:57:39.797Z,5.10
2019-02-03T21:00:20.531Z,5.20
2019-02-03T21:03:01.223Z,5.00
2019-02-03T21:05:43.125Z,5.10
2019-02-03T21:08:24.049Z,5.00
2019-02-03T21:11:05.434Z,5.00
2019-02-03T21:13:47.591Z,4.90
2019-02-03T21:16:28.740Z,4.90
2019-02-03T21:19:10.247Z,4.80
2019-02-03T21:21:39.439Z,4.70
2019-02-03T21:24:27.847Z,4.70
2019-02-03T21:27:16.254Z,4.70
2019-02-03T21:30:06.526Z,4.70
2019-02-03T21:32:54.723Z,4.70
2019-02-03T21:35:43.026Z,4.60
2019-02-03T21:38:31.229Z,4.60
2019-02-03T21:41:21.154Z,4.50
2019-02-03T21:44:02.490Z,4.50
2019-02-03T21:46:31.618Z,4.40
2019-02-03T21:49:21.550Z,4.40
2019-02-03T21:52:09.734Z,4.30
2019-02-03T21:54:57.972Z,4.20
2019-02-03T21:57:46.403Z,4.20
2019-02-03T22:00:34.894Z,4.10
2019-02-03T22:03:23.678Z,4.10
2019-02-03T22:06:11.907Z,4.10
2019-02-03T22:09:00.082Z,4.10
2019-02-03T22:11:48.579Z,4.10
2019-02-03T22:14:17.680Z,4.10
2019-02-03T22:17:05.879Z,4.10
2019-02-03T22:19:35.004Z,4.00
2019-02-03T22:22:23.186Z,4.00
2019-02-03T22:24:52.661Z,3.90
2019-02-03T22:27:42.200Z,3.90
2019-02-03T22:30:18.462Z,3.80
2019-02-03T22:32:48.150Z,3.80
2019-02-03T22:35:17.268Z,3.80
2019-02-03T22:37:46.346Z,3.70
2019-02-03T22:40:16.253Z,3.80
2019-02-03T22:42:46.083Z,3.70
2019-02-03T22:45:17.563Z,3.70
2019-02-03T22:47:46.747Z,3.60
2019-02-03T22:50:36.206Z,3.60
2019-02-03T22:53:05.406Z,3.50
2019-02-03T22:55:53.718Z,3.50
2019-02-03T22:58:41.898Z,3.50
2019-02-03T23:01:36.443Z,3.50
2019-02-03T23:04:28.972Z,3.40
2019-02-03T23:07:17.269Z,3.40
2019-02-03T23:10:05.910Z,3.50
2019-02-03T23:12:54.110Z,3.50
2019-02-03T23:15:42.490Z,3.50
2019-02-03T23:18:30.950Z,3.40
2019-02-03T23:21:19.190Z,3.40
2019-02-03T23:24:09.090Z,3.40
2019-02-03T23:26:57.289Z,3.40
2019-02-03T23:29:26.394Z,3.50
2019-02-03T23:32:14.594Z,3.40
2019-02-03T23:35:02.777Z,3.40
2019-02-03T23:37:52.696Z,3.30
2019-02-03T23:40:41.124Z,3.20
2019-02-03T23:43:29.566Z,3.10
2019-02-03T23:46:29.124Z,3.10
2019-02-03T23:48:48.658Z,3.00
2019-02-03T23:51:37.235Z,3.00
2019-02-03T23:54:25.483Z,3.00
2019-02-03T23:57:13.688Z,3.10
